createdAt,value
2019-03-28T00:01:11.788Z,102575.09
2019-03-28T00:03:41.713Z,102581.73
2019-03-28T00:06:11.609Z,102574.34
2019-03-28T00:08:41.824Z,102572.95
2019-03-28T00:11:12.552Z,102573.59
2019-03-28T00:13:43.426Z,102578.39
2019-03-28T00:16:13.364Z,102581.85
2019-03-28T00:18:44.051Z,102578.69
2019-03-28T00:21:14.124Z,102581.55
2019-03-28T00:24:01.092Z,102581.74
2019-03-28T00:26:32.027Z,102576.89
2019-03-28T00:29:02.371Z,102581.74
2019-03-28T00:31:33.183Z,102581.23
2019-03-28T00:34:05.054Z,102584.86
2019-03-28T00:36:35.055Z,102588.87
2019-03-28T00:39:05.778Z,102587.66
2019-03-28T00:41:35.658Z,102586.88
2019-03-28T00:44:05.590Z,102587.86
2019-03-28T00:46:35.482Z,102592.22
2019-03-28T00:49:05.500Z,102585.86
2019-03-28T00:51:35.511Z,102587.39
2019-03-28T00:54:05.425Z,102583.25
2019-03-28T00:56:46.383Z,102583.25
2019-03-28T00:59:07.174Z,102580.41
2019-03-28T01:01:37.322Z,102578.94
2019-03-28T01:04:11.046Z,102575.80
2019-03-28T01:06:41.703Z,102574.97
2019-03-28T01:09:11.819Z,102571.86
2019-03-28T01:11:41.777Z,102573.57
2019-03-28T01:14:11.863Z,102565.73
2019-03-28T01:16:41.777Z,102567.09
2019-03-28T01:19:12.505Z,102565.92
2019-03-28T01:21:43.018Z,102568.08
2019-03-28T01:24:13.927Z,102569.94
2019-03-28T01:26:51.858Z,102567.39
2019-03-28T01:29:16.465Z,102567.75
2019-03-28T01:31:46.885Z,102562.70
2019-03-28T01:34:17.190Z,102561.56
2019-03-28T01:36:47.303Z,102564.25
2019-03-28T01:39:17.535Z,102565.09
2019-03-28T01:41:47.540Z,102568.27
2019-03-28T01:44:17.575Z,102568.78
2019-03-28T01:46:47.687Z,102562.91
2019-03-28T01:49:17.767Z,102566.62
2019-03-28T01:51:48.336Z,102566.97
2019-03-28T01:54:21.346Z,102566.62
2019-03-28T01:56:51.612Z,102561.09
2019-03-28T01:59:21.990Z,102561.25
2019-03-28T02:01:53.261Z,102561.44
2019-03-28T02:04:24.178Z,102559.75
2019-03-28T02:06:54.161Z,102563.62
2019-03-28T02:09:24.203Z,102567.11
2019-03-28T02:11:54.174Z,102561.77
2019-03-28T02:14:25.708Z,102560.42
2019-03-28T02:16:55.910Z,102562.80
2019-03-28T02:19:26.324Z,102562.53
2019-03-28T02:21:56.495Z,102565.72
2019-03-28T02:24:26.800Z,102563.03
2019-03-28T02:26:56.821Z,102561.20
2019-03-28T02:29:26.864Z,102564.50
2019-03-28T02:31:56.823Z,102563.14
2019-03-28T02:34:27.640Z,102568.31
2019-03-28T02:36:57.588Z,102567.11
2019-03-28T02:39:28.467Z,102570.80
2019-03-28T02:41:58.576Z,102578.82
2019-03-28T02:44:28.550Z,102583.02
2019-03-28T02:46:58.887Z,102576.47
2019-03-28T02:49:30.652Z,102577.48
2019-03-28T02:52:00.697Z,102582.16
2019-03-28T02:54:31.659Z,102581.31
2019-03-28T02:57:02.320Z,102580.45
2019-03-28T02:59:32.341Z,102583.44
2019-03-28T03:02:02.888Z,102578.14
2019-03-28T03:04:33.019Z,102578.63
2019-03-28T03:07:03.071Z,102583.30
2019-03-28T03:09:36.246Z,102578.45
2019-03-28T03:12:06.558Z,102584.09
2019-03-28T03:14:39.702Z,102581.73
2019-03-28T03:17:09.732Z,102585.41
2019-03-28T03:19:40.035Z,102584.41
2019-03-28T03:22:10.183Z,102583.23
2019-03-28T03:24:40.249Z,102595.45
2019-03-28T03:27:10.348Z,102598.78
2019-03-28T03:29:40.107Z,102600.42
2019-03-28T03:32:10.102Z,102598.41
2019-03-28T03:34:40.890Z,102601.08
2019-03-28T03:37:10.805Z,102604.71
2019-03-28T03:39:40.775Z,102607.49
2019-03-28T03:42:10.759Z,102608.77
2019-03-28T03:44:42.000Z,102613.30
2019-03-28T03:47:12.416Z,102608.64
2019-03-28T03:49:42.735Z,102612.97
2019-03-28T03:52:12.904Z,102607.62
2019-03-28T03:54:44.422Z,102603.48
2019-03-28T03:57:14.374Z,102606.48
2019-03-28T03:59:44.524Z,102616.55
2019-03-28T04:02:14.556Z,102610.05
2019-03-28T04:04:44.665Z,102613.22
2019-03-28T04:07:14.822Z,102614.02
2019-03-28T04:09:45.778Z,102615.34
2019-03-28T04:12:15.778Z,102620.20
2019-03-28T04:14:45.789Z,102620.20
2019-03-28T04:17:15.972Z,102615.02
2019-03-28T04:19:46.651Z,102617.51
2019-03-28T04:22:17.325Z,102620.67
2019-03-28T04:24:47.882Z,102627.35
2019-03-28T04:27:19.028Z,102628.69
2019-03-28T04:29:50.990Z,102625.00
2019-03-28T04:32:21.564Z,102627.84
2019-03-28T04:34:51.606Z,102633.87
2019-03-28T04:37:21.938Z,102627.48
2019-03-28T04:39:52.573Z,102631.30
2019-03-28T04:42:22.480Z,102622.60
2019-03-28T04:44:52.818Z,102629.15
2019-03-28T04:47:22.788Z,102625.27
2019-03-28T04:49:52.925Z,102635.28
2019-03-28T04:52:22.931Z,102627.56
2019-03-28T04:54:52.922Z,102622.22
2019-03-28T04:57:23.123Z,102628.22
2019-03-28T04:59:53.021Z,102629.06
2019-03-28T05:02:23.061Z,102629.91
2019-03-28T05:04:53.119Z,102628.58
2019-03-28T05:07:23.015Z,102628.70
2019-03-28T05:09:52.988Z,102632.58
2019-03-28T05:12:24.167Z,102633.39
2019-03-28T05:14:55.491Z,102637.56
2019-03-28T05:17:25.690Z,102637.86
2019-03-28T05:19:55.720Z,102634.87
2019-03-28T05:22:25.800Z,102633.66
2019-03-28T05:24:57.026Z,102641.19
2019-03-28T05:27:26.988Z,102632.52
2019-03-28T05:29:57.286Z,102635.84
2019-03-28T05:32:27.295Z,102639.36
2019-03-28T05:34:57.414Z,102640.34
2019-03-28T05:37:27.343Z,102646.56
2019-03-28T05:39:57.434Z,102640.73
2019-03-28T05:42:27.446Z,102641.22
2019-03-28T05:44:57.502Z,102649.30
2019-03-28T05:47:27.440Z,102644.83
2019-03-28T05:49:57.540Z,102641.37
2019-03-28T05:52:27.532Z,102647.72
2019-03-28T05:54:58.514Z,102639.41
2019-03-28T05:57:28.546Z,102638.27
2019-03-28T05:59:58.451Z,102640.15
2019-03-28T06:02:28.549Z,102643.31
2019-03-28T06:04:58.495Z,102646.86
2019-03-28T06:07:28.567Z,102643.09
2019-03-28T06:09:58.484Z,102639.19
2019-03-28T06:12:28.415Z,102642.66
2019-03-28T06:14:58.422Z,102639.22
2019-03-28T06:17:28.675Z,102647.67
2019-03-28T06:19:58.600Z,102651.33
2019-03-28T06:22:28.582Z,102650.73
2019-03-28T06:24:59.204Z,102653.78
2019-03-28T06:27:29.967Z,102655.72
2019-03-28T06:30:02.062Z,102652.39
2019-03-28T06:32:42.319Z,102651.22
2019-03-28T06:35:03.511Z,102654.22
2019-03-28T06:37:34.317Z,102653.27
2019-03-28T06:40:05.533Z,102658.33
2019-03-28T06:42:35.968Z,102668.09
2019-03-28T06:45:07.036Z,102658.47
2019-03-28T06:47:37.100Z,102670.16
2019-03-28T06:50:08.008Z,102673.51
2019-03-28T06:52:38.044Z,102681.25
2019-03-28T06:55:09.053Z,102682.21
2019-03-28T06:57:39.056Z,102681.98
2019-03-28T07:00:09.503Z,102690.11
2019-03-28T07:02:41.602Z,102682.42
2019-03-28T07:05:11.868Z,102696.17
2019-03-28T07:07:41.753Z,102693.63
2019-03-28T07:10:12.735Z,102694.66
2019-03-28T07:12:42.728Z,102691.05
2019-03-28T07:15:12.955Z,102704.04
2019-03-28T07:17:43.663Z,102705.88
2019-03-28T07:20:14.222Z,102710.25
2019-03-28T07:22:47.649Z,102711.69
2019-03-28T07:25:17.863Z,102709.53
2019-03-28T07:27:47.811Z,102705.34
2019-03-28T07:30:19.417Z,102709.14
2019-03-28T07:32:49.478Z,102702.40
2019-03-28T07:35:19.495Z,102713.83
2019-03-28T07:37:49.651Z,102713.11
2019-03-28T07:40:21.368Z,102713.67
2019-03-28T07:42:52.433Z,102712.38
2019-03-28T07:45:22.429Z,102717.78
2019-03-28T07:48:03.484Z,102717.11
2019-03-28T07:51:18.132Z,102720.61
2019-03-28T07:54:32.864Z,102720.80
2019-03-28T08:01:20.884Z,102702.02
2019-03-28T08:04:48.905Z,102704.02
2019-03-28T08:11:28.436Z,102698.68
2019-03-28T08:21:34.641Z,102693.97
2019-03-28T08:24:04.545Z,102695.23
2019-03-28T08:26:34.401Z,102704.87
2019-03-28T08:29:04.234Z,102701.06
2019-03-28T08:31:34.119Z,102705.67
2019-03-28T08:34:03.955Z,102696.33
2019-03-28T08:36:34.007Z,102697.91
2019-03-28T08:39:05.301Z,102693.77
2019-03-28T08:41:35.142Z,102695.11
2019-03-28T08:44:07.343Z,102699.88
2019-03-28T08:46:36.729Z,102705.88
2019-03-28T08:49:06.594Z,102719.19
2019-03-28T08:51:36.378Z,102726.07
2019-03-28T08:54:06.250Z,102723.62
2019-03-28T08:56:36.116Z,102719.31
2019-03-28T08:59:06.080Z,102723.44
2019-03-28T09:01:35.919Z,102725.47
2019-03-28T09:04:05.811Z,102722.77
2019-03-28T09:06:36.651Z,102722.98
2019-03-28T09:09:07.954Z,102727.71
2019-03-28T09:11:37.794Z,102727.59
2019-03-28T09:14:07.756Z,102731.09
2019-03-28T09:16:43.534Z,102732.34
2019-03-28T09:19:13.454Z,102731.69
2019-03-28T09:21:43.327Z,102739.22
2019-03-28T09:24:13.259Z,102737.84
2019-03-28T09:26:43.165Z,102740.00
2019-03-28T09:29:13.137Z,102742.88
2019-03-28T09:31:42.973Z,102740.05
2019-03-28T09:34:12.959Z,102740.08
2019-03-28T09:36:42.929Z,102738.56
2019-03-28T09:39:13.050Z,102738.59
2019-03-28T09:41:42.889Z,102727.00
2019-03-28T09:44:12.914Z,102728.08
2019-03-28T09:46:42.850Z,102732.38
2019-03-28T09:49:12.759Z,102739.61
2019-03-28T09:51:42.743Z,102740.84
2019-03-28T09:54:12.665Z,102733.41
2019-03-28T09:56:42.646Z,102735.61
2019-03-28T09:59:12.549Z,102740.84
2019-03-28T10:01:42.467Z,102740.88
2019-03-28T10:04:12.307Z,102738.03
2019-03-28T10:06:48.098Z,102734.83
2019-03-28T10:09:17.960Z,102731.56
2019-03-28T10:11:47.888Z,102734.63
2019-03-28T10:14:17.737Z,102726.10
2019-03-28T10:16:47.557Z,102733.75
2019-03-28T10:19:18.704Z,102725.63
2019-03-28T10:21:48.647Z,102727.91
2019-03-28T10:24:18.548Z,102733.05
2019-03-28T10:26:48.474Z,102736.86
2019-03-28T10:29:18.400Z,102731.66
2019-03-28T10:31:48.238Z,102733.91
2019-03-28T10:34:18.136Z,102735.92
2019-03-28T10:36:48.122Z,102737.13
2019-03-28T10:39:18.069Z,102734.84
2019-03-28T10:41:48.012Z,102734.42
2019-03-28T10:44:17.959Z,102740.74
2019-03-28T10:46:47.977Z,102732.95
2019-03-28T10:49:17.841Z,102727.20
2019-03-28T10:51:47.782Z,102732.94
2019-03-28T10:54:20.728Z,102731.50
2019-03-28T10:56:52.552Z,102726.77
2019-03-28T10:59:24.067Z,102734.53
2019-03-28T11:01:53.629Z,102734.52
2019-03-28T11:04:23.468Z,102728.81
2019-03-28T11:06:53.348Z,102727.61
2019-03-28T11:09:23.248Z,102725.64
2019-03-28T11:11:53.173Z,102728.73
2019-03-28T11:14:22.975Z,102731.42
2019-03-28T11:16:53.875Z,102730.57
2019-03-28T11:19:23.749Z,102735.54
2019-03-28T11:21:53.579Z,102735.54
2019-03-28T11:24:23.464Z,102730.52
2019-03-28T11:26:54.603Z,102729.08
2019-03-28T11:29:24.451Z,102721.16
2019-03-28T11:31:54.692Z,102723.76
2019-03-28T11:34:24.536Z,102722.27
2019-03-28T11:36:54.448Z,102721.56
2019-03-28T11:39:24.279Z,102728.95
2019-03-28T11:41:54.222Z,102727.75
2019-03-28T11:44:24.130Z,102728.97
2019-03-28T11:46:53.951Z,102725.63
2019-03-28T11:49:23.833Z,102729.81
2019-03-28T11:51:53.771Z,102727.73
2019-03-28T11:54:23.726Z,102723.59
2019-03-28T11:56:53.631Z,102724.28
2019-03-28T11:59:23.493Z,102725.84
2019-03-28T12:02:02.070Z,102727.12
2019-03-28T12:04:26.908Z,102727.42
2019-03-28T12:06:56.752Z,102719.55
2019-03-28T12:09:27.014Z,102723.36
2019-03-28T12:11:56.983Z,102725.00
2019-03-28T12:14:26.821Z,102719.92
2019-03-28T12:16:57.044Z,102717.05
2019-03-28T12:19:26.892Z,102714.39
2019-03-28T12:21:56.862Z,102707.22
2019-03-28T12:24:26.777Z,102714.28
2019-03-28T12:26:56.722Z,102710.58
2019-03-28T12:29:26.650Z,102703.47
2019-03-28T12:31:56.571Z,102708.65
2019-03-28T12:34:26.397Z,102705.05
2019-03-28T12:36:56.354Z,102707.75
2019-03-28T12:39:26.200Z,102707.75
2019-03-28T12:41:56.000Z,102708.09
2019-03-28T12:44:25.810Z,102708.34
2019-03-28T12:46:55.651Z,102711.64
2019-03-28T12:49:25.541Z,102713.17
2019-03-28T12:51:55.462Z,102710.78
2019-03-28T12:54:25.505Z,102707.66
2019-03-28T12:56:58.004Z,102709.83
2019-03-28T12:59:27.180Z,102699.23
2019-03-28T13:01:56.964Z,102706.44
2019-03-28T13:04:26.801Z,102695.13
2019-03-28T13:06:56.742Z,102699.06
2019-03-28T13:09:28.148Z,102694.91
2019-03-28T13:11:58.236Z,102694.48
2019-03-28T13:14:31.193Z,102682.69
2019-03-28T13:16:59.817Z,102684.95
2019-03-28T13:19:29.729Z,102688.12
2019-03-28T13:21:59.651Z,102676.09
2019-03-28T13:24:29.576Z,102679.97
2019-03-28T13:26:59.480Z,102672.75
2019-03-28T13:29:29.309Z,102678.29
2019-03-28T13:31:59.169Z,102669.52
2019-03-28T13:34:29.009Z,102671.57
2019-03-28T13:36:58.996Z,102673.59
2019-03-28T13:39:34.757Z,102672.86
2019-03-28T13:42:04.643Z,102668.36
2019-03-28T13:44:34.513Z,102671.26
2019-03-28T13:47:04.397Z,102669.05
2019-03-28T13:49:34.702Z,102674.32
2019-03-28T13:52:04.591Z,102672.97
2019-03-28T13:54:34.442Z,102674.94
2019-03-28T13:57:04.301Z,102669.98
2019-03-28T13:59:35.427Z,102674.45
2019-03-28T14:02:07.052Z,102667.82
2019-03-28T14:04:37.268Z,102678.66
2019-03-28T14:07:07.129Z,102675.11
2019-03-28T14:09:37.185Z,102674.22
2019-03-28T14:12:07.140Z,102663.19
2019-03-28T14:14:39.881Z,102663.77
2019-03-28T14:17:08.726Z,102660.11
2019-03-28T14:19:38.808Z,102659.72
2019-03-28T14:22:08.763Z,102658.92
2019-03-28T14:24:38.792Z,102658.73
2019-03-28T14:27:08.665Z,102656.68
2019-03-28T14:29:38.692Z,102653.95
2019-03-28T14:32:08.648Z,102659.03
2019-03-28T14:34:39.949Z,102647.53
2019-03-28T14:37:10.835Z,102643.23
2019-03-28T14:39:40.821Z,102656.16
2019-03-28T14:42:10.745Z,102649.31
2019-03-28T14:44:40.623Z,102653.70
2019-03-28T14:47:10.468Z,102649.94
2019-03-28T14:49:40.634Z,102649.48
2019-03-28T14:52:10.569Z,102652.98
2019-03-28T14:54:40.467Z,102653.33
2019-03-28T14:57:10.347Z,102653.27
2019-03-28T14:59:41.356Z,102649.70
2019-03-28T15:02:11.525Z,102646.12
2019-03-28T15:04:41.718Z,102642.52
2019-03-28T15:07:12.574Z,102650.13
2019-03-28T15:09:51.708Z,102651.81
2019-03-28T15:12:21.503Z,102647.50
2019-03-28T15:14:51.691Z,102642.19
2019-03-28T15:17:21.590Z,102645.51
2019-03-28T15:19:51.548Z,102640.23
2019-03-28T15:22:21.592Z,102636.38
2019-03-28T15:24:51.746Z,102635.61
2019-03-28T15:27:21.831Z,102637.91
2019-03-28T15:30:01.148Z,102642.29
2019-03-28T15:32:31.137Z,102640.88
2019-03-28T15:35:01.305Z,102635.52
2019-03-28T15:37:31.420Z,102645.85
2019-03-28T15:40:01.517Z,102648.99
2019-03-28T15:42:31.728Z,102643.59
2019-03-28T15:45:02.013Z,102642.11
2019-03-28T15:47:32.151Z,102646.39
2019-03-28T15:50:02.386Z,102643.86
2019-03-28T15:52:32.588Z,102645.64
2019-03-28T15:55:03.630Z,102650.89
2019-03-28T15:57:33.733Z,102651.83
2019-03-28T16:00:03.877Z,102652.14
2019-03-28T16:02:34.141Z,102644.13
2019-03-28T16:05:04.361Z,102646.52
2019-03-28T16:07:35.359Z,102645.19
2019-03-28T16:10:06.147Z,102648.17
2019-03-28T16:12:36.171Z,102643.82
2019-03-28T16:15:06.772Z,102650.02
2019-03-28T16:17:36.907Z,102642.86
2019-03-28T16:20:08.733Z,102640.41
2019-03-28T16:22:38.910Z,102643.32
2019-03-28T16:25:09.148Z,102636.25
2019-03-28T16:27:39.258Z,102637.18
2019-03-28T16:30:10.208Z,102645.12
2019-03-28T16:32:40.428Z,102642.69
2019-03-28T16:35:10.666Z,102644.39
2019-03-28T16:37:40.906Z,102649.62
2019-03-28T16:40:11.492Z,102647.90
2019-03-28T16:42:42.035Z,102650.31
2019-03-28T16:45:12.314Z,102647.67
2019-03-28T16:47:42.532Z,102650.42
2019-03-28T16:50:13.092Z,102646.93
2019-03-28T16:52:43.659Z,102651.81
2019-03-28T16:55:25.796Z,102648.17
2019-03-28T16:57:46.172Z,102642.15
2019-03-28T17:00:16.730Z,102641.19
2019-03-28T17:02:47.023Z,102641.58
2019-03-28T17:05:17.260Z,102636.20
2019-03-28T17:07:47.575Z,102648.00
2019-03-28T17:10:41.793Z,102644.34
2019-03-28T17:13:12.022Z,102651.10
2019-03-28T17:15:42.133Z,102642.75
2019-03-28T17:18:12.434Z,102646.13
2019-03-28T17:20:42.782Z,102639.25
2019-03-28T17:23:12.819Z,102640.81
2019-03-28T17:25:43.120Z,102640.84
2019-03-28T17:28:13.282Z,102645.89
2019-03-28T17:30:49.819Z,102639.02
2019-03-28T17:33:19.991Z,102649.12
2019-03-28T17:35:50.409Z,102650.15
2019-03-28T17:38:21.251Z,102650.51
2019-03-28T17:40:52.072Z,102649.30
2019-03-28T17:43:22.146Z,102647.64
2019-03-28T17:45:52.367Z,102658.38
2019-03-28T17:48:22.578Z,102650.83
2019-03-28T17:50:52.898Z,102651.66
2019-03-28T17:53:24.156Z,102649.98
2019-03-28T17:55:55.505Z,102652.69
2019-03-28T17:58:25.950Z,102646.99
2019-03-28T18:00:56.150Z,102641.95
2019-03-28T18:03:31.412Z,102648.68
2019-03-28T18:05:58.845Z,102650.36
2019-03-28T18:08:29.238Z,102653.37
2019-03-28T18:11:00.467Z,102652.88
2019-03-28T18:13:31.435Z,102656.39
2019-03-28T18:16:03.403Z,102658.06
2019-03-28T18:18:33.697Z,102656.55
2019-03-28T18:21:03.897Z,102654.37
2019-03-28T18:23:34.077Z,102654.20
2019-03-28T18:26:04.469Z,102650.53
2019-03-28T18:28:35.716Z,102649.02
2019-03-28T18:31:08.571Z,102655.56
2019-03-28T18:33:38.796Z,102647.67
2019-03-28T18:36:08.984Z,102646.66
2019-03-28T18:38:39.234Z,102650.34
2019-03-28T18:41:09.547Z,102652.33
2019-03-28T18:43:40.990Z,102650.99
2019-03-28T18:46:14.516Z,102656.86
2019-03-28T18:48:43.324Z,102663.22
2019-03-28T18:51:13.626Z,102661.03
2019-03-28T18:53:44.181Z,102659.34
2019-03-28T18:56:16.052Z,102659.34
2019-03-28T18:58:46.717Z,102663.69
2019-03-28T19:01:17.071Z,102652.29
2019-03-28T19:03:50.228Z,102655.64
2019-03-28T19:06:20.967Z,102651.62
2019-03-28T19:08:51.121Z,102649.92
2019-03-28T19:11:21.424Z,102656.48
2019-03-28T19:13:51.770Z,102654.48
2019-03-28T19:16:22.390Z,102655.64
2019-03-28T19:18:52.740Z,102650.45
2019-03-28T19:21:23.038Z,102654.97
2019-03-28T19:23:53.269Z,102660.86
2019-03-28T19:26:23.560Z,102656.66
2019-03-28T19:28:56.168Z,102660.33
2019-03-28T19:31:25.944Z,102662.66
2019-03-28T19:33:56.304Z,102662.34
2019-03-28T19:36:27.345Z,102660.86
2019-03-28T19:38:59.837Z,102659.69
2019-03-28T19:41:30.205Z,102664.73
2019-03-28T19:44:00.431Z,102666.39
2019-03-28T19:46:30.778Z,102659.69
2019-03-28T19:49:01.028Z,102663.69
2019-03-28T19:51:31.495Z,102660.33
2019-03-28T19:54:01.770Z,102664.67
2019-03-28T19:56:32.506Z,102663.30
2019-03-28T19:59:03.065Z,102661.79
2019-03-28T20:01:33.366Z,102662.98
2019-03-28T20:04:03.730Z,102667.67
2019-03-28T20:06:34.041Z,102665.31
2019-03-28T20:09:15.680Z,102660.97
2019-03-28T20:11:37.218Z,102663.97
2019-03-28T20:14:07.565Z,102664.99
2019-03-28T20:16:37.744Z,102661.30
2019-03-28T20:19:08.370Z,102654.59
2019-03-28T20:21:38.744Z,102656.42
2019-03-28T20:24:09.019Z,102658.30
2019-03-28T20:26:39.357Z,102652.58
2019-03-28T20:29:09.682Z,102656.95
2019-03-28T20:31:41.400Z,102663.30
2019-03-28T20:34:11.778Z,102662.62
2019-03-28T20:36:44.067Z,102665.98
2019-03-28T20:39:15.702Z,102672.33
2019-03-28T20:41:45.909Z,102666.30
2019-03-28T20:44:16.309Z,102670.64
2019-03-28T20:46:46.609Z,102669.97
2019-03-28T20:49:16.849Z,102671.13
2019-03-28T20:51:47.069Z,102671.30
2019-03-28T20:54:17.277Z,102666.27
2019-03-28T20:56:47.961Z,102665.42
2019-03-28T20:59:18.141Z,102671.27
2019-03-28T21:01:48.409Z,102668.73
2019-03-28T21:04:30.781Z,102671.23
2019-03-28T21:06:52.028Z,102673.94
2019-03-28T21:09:22.408Z,102670.95
2019-03-28T21:11:52.782Z,102680.55
2019-03-28T21:14:23.074Z,102677.05
2019-03-28T21:16:53.306Z,102680.41
2019-03-28T21:19:23.652Z,102678.39
2019-03-28T21:21:54.957Z,102677.69
2019-03-28T21:24:25.646Z,102672.33
2019-03-28T21:26:55.881Z,102671.66
2019-03-28T21:29:26.150Z,102669.47
2019-03-28T21:31:56.534Z,102667.95
2019-03-28T21:34:26.716Z,102670.95
2019-03-28T21:36:57.009Z,102667.64
2019-03-28T21:39:27.154Z,102668.62
2019-03-28T21:41:57.377Z,102666.27
2019-03-28T21:44:27.590Z,102664.25
2019-03-28T21:46:58.769Z,102663.83
2019-03-28T21:49:29.118Z,102668.47
2019-03-28T21:51:59.434Z,102660.55
2019-03-28T21:54:29.583Z,102662.33
2019-03-28T21:56:59.707Z,102669.57
2019-03-28T21:59:29.818Z,102667.58
2019-03-28T22:01:59.871Z,102674.90
2019-03-28T22:04:29.905Z,102666.39
2019-03-28T22:06:59.862Z,102669.58
2019-03-28T22:09:29.904Z,102675.59
2019-03-28T22:12:00.914Z,102673.09
2019-03-28T22:14:31.287Z,102674.36
2019-03-28T22:17:01.230Z,102674.98
2019-03-28T22:19:31.138Z,102669.11
2019-03-28T22:22:01.966Z,102673.13
2019-03-28T22:24:32.131Z,102680.84
2019-03-28T22:27:02.264Z,102676.38
2019-03-28T22:29:32.695Z,102679.97
2019-03-28T22:32:02.619Z,102677.45
2019-03-28T22:34:33.286Z,102683.22
2019-03-28T22:37:04.933Z,102681.61
2019-03-28T22:39:34.881Z,102689.36
2019-03-28T22:42:04.898Z,102680.74
2019-03-28T22:44:34.848Z,102684.30
2019-03-28T22:47:05.947Z,102684.48
2019-03-28T22:49:36.049Z,102683.20
2019-03-28T22:52:06.003Z,102692.09
2019-03-28T22:54:35.901Z,102685.30
2019-03-28T22:57:05.829Z,102686.17
2019-03-28T22:59:35.654Z,102684.22
2019-03-28T23:02:06.134Z,102685.09
2019-03-28T23:04:36.067Z,102677.77
2019-03-28T23:07:11.183Z,102680.81
2019-03-28T23:09:38.517Z,102673.14
2019-03-28T23:12:09.044Z,102682.99
2019-03-28T23:14:39.315Z,102676.66
2019-03-28T23:17:09.254Z,102677.51
2019-03-28T23:19:39.127Z,102675.81
2019-03-28T23:22:09.033Z,102680.81
2019-03-28T23:24:39.223Z,102672.46
2019-03-28T23:27:09.239Z,102678.80
2019-03-28T23:29:39.110Z,102675.80
2019-03-28T23:32:09.082Z,102672.27
2019-03-28T23:34:39.021Z,102670.09
2019-03-28T23:37:08.956Z,102665.05
2019-03-28T23:39:38.931Z,102659.02
2019-03-28T23:42:08.930Z,102664.72
2019-03-28T23:44:38.897Z,102661.01
2019-03-28T23:47:08.834Z,102656.69
2019-03-28T23:49:40.614Z,102655.38
2019-03-28T23:52:10.679Z,102656.70
2019-03-28T23:54:41.324Z,102655.35
2019-03-28T23:57:11.271Z,102650.98
2019-03-28T23:59:42.394Z,102645.26
